Time;durP1;ratioP1;P1;durP2;ratioP2;P2;SDS_P1;SDS_P2;PMS_P1;PMS_P2;Temp;Humidity;BMP_temperature;BMP_pressure;BME280_temperature;BME280_humidity;BME280_pressure;Samples;Min_cycle;Max_cycle;Signal;HPM_P1;HPM_P2
2022/09/01 00:01:29;;;;;;;;;;;;;;;16.90;91.01;95073.75;5157525;27;1035;-49
2022/09/01 00:04:02;;;;;;;;;;;;;;;16.80;91.20;95066.00;5157169;27;937;-49
2022/09/01 00:06:29;;;;;;;;;;;;;;;16.75;91.57;95069.34;5157376;27;1957;-49
2022/09/01 00:08:57;;;;;;;;;;;;;;;16.66;91.83;95067.00;5157250;27;1902;-48
2022/09/01 00:11:24;;;;;;;;;;;;;;;16.66;92.19;95064.31;5157212;27;1040;-48
2022/09/01 00:13:51;;;;;;;;;;;;;;;16.79;91.37;95075.16;5156990;27;1084;-48
2022/09/01 00:16:18;;;;;;;;;;;;;;;16.79;91.23;95070.59;5157011;27;1039;-49
2022/09/01 00:18:48;;;;;;;;;;;;;;;16.73;91.31;95074.09;5157162;27;969;-49
2022/09/01 00:21:15;;;;;;;;;;;;;;;16.63;91.74;95072.78;5157136;27;1011;-49
2022/09/01 00:23:41;;;;;;;;;;;;;;;16.49;91.88;95067.34;5156968;27;1043;-48
2022/09/01 00:26:08;;;;;;;;;;;;;;;16.40;91.95;95066.66;5156788;27;1032;-48
2022/09/01 00:28:35;;;;;;;;;;;;;;;16.41;92.19;95067.50;5156678;27;1905;-48
2022/09/01 00:31:01;;;;;;;;;;;;;;;16.47;92.68;95074.81;5156762;27;1063;-48
2022/09/01 00:33:27;;;;;;;;;;;;;;;16.56;92.84;95080.84;5156570;27;1099;-48
2022/09/01 00:35:53;;;;;;;;;;;;;;;16.52;92.33;95077.75;5156908;27;1035;-49
2022/09/01 00:38:19;;;;;;;;;;;;;;;16.44;91.76;95082.47;5156217;27;1211;-48
2022/09/01 00:40:45;;;;;;;;;;;;;;;16.39;91.94;95083.91;5156744;27;980;-48
2022/09/01 00:43:13;;;;;;;;;;;;;;;16.55;90.83;95076.50;5156394;27;1036;-48
2022/09/01 00:45:40;;;;;;;;;;;;;;;16.67;89.95;95074.88;5138450;27;1160;-48
2022/09/01 00:48:06;;;;;;;;;;;;;;;16.62;90.85;95074.66;5135741;27;1984;-49
2022/09/01 00:50:32;;;;;;;;;;;;;;;16.62;91.31;95069.28;5135539;27;1210;-49
2022/09/01 00:52:59;;;;;;;;;;;;;;;16.62;91.04;95071.13;5135861;27;1047;-49
2022/09/01 00:55:29;;;;;;;;;;;;;;;16.39;91.04;95081.19;5135326;27;1054;-49
2022/09/01 00:57:56;;;;;;;;;;;;;;;16.24;91.71;95076.94;5135552;27;1044;-48
2022/09/01 01:00:24;;;;;;;;;;;;;;;16.26;92.13;95072.16;5135161;27;984;-48
2022/09/01 01:02:54;;;;;;;;;;;;;;;16.31;91.80;95070.53;5135637;27;995;-48
2022/09/01 01:05:22;;;;;;;;;;;;;;;16.34;91.50;95075.56;5135364;27;965;-49
2022/09/01 01:07:49;;;;;;;;;;;;;;;16.34;91.55;95080.94;5134915;27;1984;-49
2022/09/01 01:10:16;;;;;;;;;;;;;;;16.31;91.91;95073.25;5135035;27;1103;-48
2022/09/01 01:12:43;;;;;;;;;;;;;;;16.25;91.71;95060.56;5135225;27;1048;-49
2022/09/01 01:15:10;;;;;;;;;;;;;;;16.07;92.09;95071.88;5135184;27;1025;-49
2022/09/01 01:17:37;;;;;;;;;;;;;;;16.02;92.19;95068.91;5135413;27;972;-48
2022/09/01 01:23:08;;;;;;;;;;;;;;;15.91;93.31;95058.66;5135238;27;1031;-48
2022/09/01 01:25:47;;;;;;;;;;;;;;;16.07;92.69;95062.91;5134829;27;996;-49
2022/09/01 01:28:14;;;;;;;;;;;;;;;16.10;92.22;95060.66;5134799;27;1913;-48
2022/09/01 01:30:42;;;;;;;;;;;;;;;16.10;91.98;95062.53;5134749;27;1083;-48
2022/09/01 01:33:08;;;;;;;;;;;;;;;16.03;92.36;95062.50;5134816;27;1091;-48
2022/09/01 01:35:35;;;;;;;;;;;;;;;16.00;91.85;95068.28;5134746;27;968;-49
2022/09/01 01:38:06;;;;;;;;;;;;;;;15.97;91.75;95068.66;5134934;27;1277;-48
2022/09/01 01:40:32;;;;;;;;;;;;;;;15.99;92.49;95070.16;5134869;27;1036;-48
2022/09/01 01:43:00;;;;;;;;;;;;;;;16.03;92.55;95070.59;5134972;27;980;-48
2022/09/01 01:45:26;;;;;;;;;;;;;;;16.06;92.64;95075.56;5150877;27;1165;-48
2022/09/01 01:47:53;;;;;;;;;;;;;;;15.98;91.92;95073.03;5155337;27;1901;-49
2022/09/01 01:50:24;;;;;;;;;;;;;;;16.07;91.80;95079.94;5155061;27;996;-48
2022/09/01 01:52:50;;;;;;;;;;;;;;;16.02;91.52;95076.19;5155345;27;1059;-49
2022/09/01 01:55:18;;;;;;;;;;;;;;;16.06;91.47;95082.84;5155030;27;1016;-48
2022/09/01 01:57:48;;;;;;;;;;;;;;;15.92;91.39;95087.31;5155431;27;1019;-48
2022/09/01 02:00:19;;;;;;;;;;;;;;;15.71;92.11;95105.16;5155066;27;1127;-48
2022/09/01 02:02:51;;;;;;;;;;;;;;;15.67;92.42;95092.25;5155188;27;1098;-49
2022/09/01 02:05:26;;;;;;;;;;;;;;;15.81;92.27;95092.19;5154901;27;1012;-48
2022/09/01 02:07:58;;;;;;;;;;;;;;;15.76;92.32;95086.56;5155113;27;1976;-48
2022/09/01 02:10:26;;;;;;;;;;;;;;;15.74;92.13;95093.16;5154983;27;968;-48
2022/09/01 02:12:52;;;;;;;;;;;;;;;15.76;92.09;95088.41;5155158;27;983;-49
2022/09/01 02:15:18;;;;;;;;;;;;;;;15.87;92.61;95087.88;5154850;27;965;-48
2022/09/01 02:17:45;;;;;;;;;;;;;;;15.79;92.60;95086.16;5155008;27;1110;-48
2022/09/01 02:20:15;;;;;;;;;;;;;;;15.62;91.73;95090.13;5158849;27;973;-48
2022/09/01 02:22:43;;;;;;;;;;;;;;;15.52;91.86;95093.16;5159530;27;964;-48
2022/09/01 02:25:10;;;;;;;;;;;;;;;15.47;93.24;95084.81;5159184;27;987;-48
2022/09/01 02:27:38;;;;;;;;;;;;;;;15.40;93.24;95084.78;5159237;27;1991;-48
2022/09/01 02:30:09;;;;;;;;;;;;;;;15.51;92.67;95090.66;5158891;27;980;-48
2022/09/01 02:32:36;;;;;;;;;;;;;;;15.65;92.96;95092.47;5159411;27;975;-48
2022/09/01 02:35:06;;;;;;;;;;;;;;;15.61;92.65;95094.69;5159138;27;1015;-48
2022/09/01 02:37:32;;;;;;;;;;;;;;;15.58;92.70;95080.78;5159308;27;1119;-49
2022/09/01 02:39:58;;;;;;;;;;;;;;;15.57;92.09;95079.91;5159008;27;1028;-49
2022/09/01 02:42:28;;;;;;;;;;;;;;;15.61;92.48;95083.91;5158890;27;996;-48
2022/09/01 02:44:54;;;;;;;;;;;;;;;15.75;92.06;95079.50;5147254;27;1183;-48
2022/09/01 02:47:22;;;;;;;;;;;;;;;15.72;91.93;95071.75;5138096;27;1906;-48
2022/09/01 02:49:51;;;;;;;;;;;;;;;15.74;91.96;95079.69;5138243;27;964;-49
2022/09/01 02:52:19;;;;;;;;;;;;;;;15.79;91.47;95077.25;5138096;27;968;-48
2022/09/01 02:54:47;;;;;;;;;;;;;;;15.76;92.09;95080.31;5138125;27;996;-49
2022/09/01 02:57:14;;;;;;;;;;;;;;;15.60;92.38;95078.72;5137647;27;1016;-48
2022/09/01 02:59:41;;;;;;;;;;;;;;;15.53;92.72;95084.03;5137877;27;1044;-48
2022/09/01 03:02:08;;;;;;;;;;;;;;;15.54;93.24;95085.72;5137745;27;1060;-48
2022/09/01 03:04:34;;;;;;;;;;;;;;;15.58;92.78;95087.00;5137771;27;1036;-49
2022/09/01 03:07:05;;;;;;;;;;;;;;;15.48;92.21;95086.50;5137612;27;1910;-48
2022/09/01 03:09:31;;;;;;;;;;;;;;;15.32;92.43;95084.06;5137812;27;996;-49
2022/09/01 03:11:57;;;;;;;;;;;;;;;15.25;92.79;95085.84;5137440;27;1131;-49
2022/09/01 03:14:24;;;;;;;;;;;;;;;15.17;93.22;95089.50;5137740;27;972;-48
2022/09/01 03:16:51;;;;;;;;;;;;;;;15.20;93.69;95089.13;5137583;27;1047;-48
2022/09/01 03:19:17;;;;;;;;;;;;;;;15.36;92.94;95094.25;5137409;27;1972;-48
2022/09/01 03:21:45;;;;;;;;;;;;;;;15.40;92.69;95100.94;5137401;27;1027;-49
2022/09/01 03:24:13;;;;;;;;;;;;;;;15.38;92.46;95100.25;5137306;27;1860;-48
2022/09/01 03:26:40;;;;;;;;;;;;;;;15.42;92.37;95093.50;5137172;27;1020;-49
2022/09/01 03:29:07;;;;;;;;;;;;;;;15.31;91.97;95099.38;5136644;27;2071;-48
2022/09/01 03:31:34;;;;;;;;;;;;;;;15.21;92.52;95105.09;5137273;27;985;-48
2022/09/01 03:34:02;;;;;;;;;;;;;;;15.19;92.29;95101.72;5137290;27;976;-48
2022/09/01 03:36:29;;;;;;;;;;;;;;;15.20;92.37;95092.63;5137022;27;947;-48
2022/09/01 03:38:55;;;;;;;;;;;;;;;15.15;91.91;95105.81;5136998;27;1096;-48
2022/09/01 03:41:23;;;;;;;;;;;;;;;15.10;92.19;95104.72;5136772;27;1044;-48
2022/09/01 03:43:53;;;;;;;;;;;;;;;14.97;93.10;95100.06;5139441;27;1224;-48
2022/09/01 03:46:20;;;;;;;;;;;;;;;15.04;92.73;95100.94;5157498;27;1081;-48
2022/09/01 03:48:49;;;;;;;;;;;;;;;15.09;93.29;95103.06;5157728;27;1901;-48
2022/09/01 03:51:16;;;;;;;;;;;;;;;15.28;92.89;95104.31;5157390;27;1011;-48
2022/09/01 03:53:42;;;;;;;;;;;;;;;15.33;93.11;95105.41;5157544;27;981;-48
2022/09/01 03:56:10;;;;;;;;;;;;;;;15.39;93.23;95101.94;5157697;27;1058;-48
2022/09/01 03:58:36;;;;;;;;;;;;;;;15.41;93.04;95097.19;5157599;27;1095;-48
2022/09/01 04:01:03;;;;;;;;;;;;;;;15.45;93.16;95105.72;5157540;27;1039;-48
2022/09/01 04:03:31;;;;;;;;;;;;;;;15.47;93.11;95111.75;5157374;27;1054;-47
2022/09/01 04:05:58;;;;;;;;;;;;;;;15.43;92.03;95108.59;5157418;27;1062;-49
2022/09/01 04:08:28;;;;;;;;;;;;;;;15.34;92.66;95106.25;5156865;27;2118;-50
2022/09/01 04:10:54;;;;;;;;;;;;;;;15.33;92.82;95105.41;5157482;27;1115;-50
2022/09/01 04:13:25;;;;;;;;;;;;;;;15.35;92.94;95105.22;5157154;27;1074;-49
2022/09/01 04:15:51;;;;;;;;;;;;;;;15.32;92.93;95098.34;5157246;27;983;-49
2022/09/01 04:18:20;;;;;;;;;;;;;;;15.35;93.37;95092.59;5156957;27;1056;-50
2022/09/01 04:20:49;;;;;;;;;;;;;;;15.42;92.72;95087.25;5157104;27;1036;-50
2022/09/01 04:23:19;;;;;;;;;;;;;;;15.54;92.57;95101.06;5156651;27;1095;-50
2022/09/01 04:25:48;;;;;;;;;;;;;;;15.67;92.13;95095.78;5157204;27;1044;-50
2022/09/01 04:28:21;;;;;;;;;;;;;;;15.69;92.31;95101.81;5156555;27;2014;-50
2022/09/01 04:30:49;;;;;;;;;;;;;;;15.65;93.32;95092.47;5157017;27;1036;-50
2022/09/01 04:33:16;;;;;;;;;;;;;;;15.66;93.84;95098.66;5156577;27;957;-50
2022/09/01 04:35:42;;;;;;;;;;;;;;;15.69;93.80;95093.72;5156675;27;1021;-50
2022/09/01 04:38:08;;;;;;;;;;;;;;;15.85;93.67;95097.22;5156416;27;1805;-50
2022/09/01 04:40:38;;;;;;;;;;;;;;;15.96;93.87;95099.38;5156590;27;991;-50
2022/09/01 04:43:05;;;;;;;;;;;;;;;15.88;93.29;95102.19;5155832;27;1016;-50
2022/09/01 04:45:35;;;;;;;;;;;;;;;15.98;93.26;95105.41;5139722;27;1152;-50
2022/09/01 04:48:01;;;;;;;;;;;;;;;16.08;93.79;95103.19;5135407;27;2369;-50
2022/09/01 04:50:29;;;;;;;;;;;;;;;16.20;93.77;95106.16;5135962;27;961;-49
2022/09/01 04:53:01;;;;;;;;;;;;;;;16.33;94.11;95105.41;5135689;27;968;-50
2022/09/01 04:55:28;;;;;;;;;;;;;;;16.50;94.27;95114.03;5135599;27;1040;-50
2022/09/01 04:57:56;;;;;;;;;;;;;;;16.57;93.07;95110.34;5135526;27;965;-50
2022/09/01 05:00:23;;;;;;;;;;;;;;;16.66;93.54;95105.63;5135497;27;965;-50
2022/09/01 05:02:52;;;;;;;;;;;;;;;16.90;92.45;95111.56;5135262;27;1002;-50
2022/09/01 05:05:18;;;;;;;;;;;;;;;17.45;90.71;95114.22;5135605;27;1041;-50
2022/09/01 05:07:45;;;;;;;;;;;;;;;17.81;88.93;95113.88;5135115;27;1996;-50
2022/09/01 05:10:12;;;;;;;;;;;;;;;17.75;89.03;95112.81;5135245;27;1008;-54
2022/09/01 05:12:40;;;;;;;;;;;;;;;17.67;89.70;95107.63;5135204;27;1022;-50
2022/09/01 05:15:08;;;;;;;;;;;;;;;17.76;89.17;95106.38;5135132;27;1084;-50
2022/09/01 05:17:37;;;;;;;;;;;;;;;17.67;89.76;95106.81;5135311;27;1056;-50
2022/09/01 05:20:03;;;;;;;;;;;;;;;17.70;89.70;95109.94;5135309;27;1098;-50
2022/09/01 05:22:30;;;;;;;;;;;;;;;17.89;89.47;95105.59;5135208;27;977;-51
2022/09/01 05:24:58;;;;;;;;;;;;;;;17.91;89.48;95100.00;5134908;27;1079;-51
2022/09/01 05:27:25;;;;;;;;;;;;;;;18.00;89.23;95103.31;5134897;27;1905;-51
2022/09/01 05:29:52;;;;;;;;;;;;;;;17.97;89.30;95099.16;5134760;27;1083;-51
2022/09/01 05:32:20;;;;;;;;;;;;;;;17.91;90.12;95110.81;5135082;27;945;-51
2022/09/01 05:48:08;;;;;;;;;;;;;;;17.11;96.00;95091.69;4726759;27;2289139;-50
2022/09/01 05:50:34;;;;;;;;;;;;;;;17.40;94.53;95097.81;5152191;27;1067;-49
2022/09/01 05:53:01;;;;;;;;;;;;;;;17.68;93.70;95097.63;5152177;27;1036;-50
2022/09/01 05:55:27;;;;;;;;;;;;;;;17.97;92.24;95085.63;5152247;27;1039;-50
2022/09/01 05:57:54;;;;;;;;;;;;;;;18.23;91.46;95083.91;5152312;27;964;-49
2022/09/01 06:00:20;;;;;;;;;;;;;;;18.34;89.95;95083.28;5151916;27;948;-50
2022/09/01 06:02:46;;;;;;;;;;;;;;;18.57;89.70;95087.41;5152000;27;1906;-50
2022/09/01 06:05:12;;;;;;;;;;;;;;;18.80;87.83;95078.78;5151800;27;992;-49
2022/09/01 06:07:39;;;;;;;;;;;;;;;18.76;87.55;95089.22;5151896;27;1011;-50
2022/09/01 06:10:06;;;;;;;;;;;;;;;18.90;87.81;95082.75;5151587;27;1032;-50
2022/09/01 06:12:33;;;;;;;;;;;;;;;19.04;85.54;95079.97;5151824;27;1880;-50
2022/09/01 06:15:00;;;;;;;;;;;;;;;19.25;84.30;95074.22;5151752;27;1043;-50
2022/09/01 06:18:33;;;;;;;;;;;;;;;19.19;85.09;95075.09;5133282;27;1305732;-50
2022/09/01 06:21:02;;;;;;;;;;;;;;;19.20;83.98;95084.91;5173137;27;1055;-50
2022/09/01 06:23:29;;;;;;;;;;;;;;;19.20;85.58;95076.78;5173218;27;1049;-49
2022/09/01 06:25:55;;;;;;;;;;;;;;;19.25;84.45;95085.06;5173079;27;1040;-50
2022/09/01 06:28:22;;;;;;;;;;;;;;;19.42;84.80;95082.69;5173020;27;1046;-49
2022/09/01 06:30:50;;;;;;;;;;;;;;;19.80;82.12;95078.28;5172832;27;1040;-49
2022/09/01 06:33:16;;;;;;;;;;;;;;;19.99;81.09;95077.28;5173147;27;957;-49
2022/09/01 06:35:45;;;;;;;;;;;;;;;20.12;80.30;95075.53;5172815;27;1099;-49
2022/09/01 06:38:12;;;;;;;;;;;;;;;20.48;79.26;95078.31;5172906;27;1909;-49
2022/09/01 06:40:40;;;;;;;;;;;;;;;20.93;77.37;95076.41;5172745;27;1099;-53
2022/09/01 06:43:11;;;;;;;;;;;;;;;21.36;76.69;95076.25;5172704;27;1038;-49
2022/09/01 06:45:48;;;;;;;;;;;;;;;22.66;69.91;95079.22;5172948;27;1130;-49
2022/09/01 06:48:15;;;;;;;;;;;;;;;24.67;62.81;95072.88;5172804;27;1133;-50
2022/09/01 06:50:41;;;;;;;;;;;;;;;26.70;56.29;95073.69;5172457;27;1961;-50
2022/09/01 06:53:09;;;;;;;;;;;;;;;28.44;50.58;95079.75;5172510;27;1031;-50
2022/09/01 06:55:39;;;;;;;;;;;;;;;30.16;46.90;95075.03;5172317;27;1039;-51
2022/09/01 06:58:06;;;;;;;;;;;;;;;31.30;43.42;95076.53;5172338;27;1890;-50
2022/09/01 07:00:34;;;;;;;;;;;;;;;31.82;41.82;95084.19;5172553;27;1023;-51
2022/09/01 07:03:04;;;;;;;;;;;;;;;32.35;41.33;95083.97;5172405;27;921;-51
2022/09/01 07:05:30;;;;;;;;;;;;;;;32.59;40.32;95094.13;5172214;27;1024;-51
2022/09/01 07:07:56;;;;;;;;;;;;;;;32.79;38.59;95095.72;5172375;27;993;-51
2022/09/01 07:10:23;;;;;;;;;;;;;;;33.35;38.11;95091.09;5171908;27;1167;-51
2022/09/01 07:12:50;;;;;;;;;;;;;;;33.08;38.92;95089.94;5172214;27;901;-51
2022/09/01 07:15:16;;;;;;;;;;;;;;;32.90;39.10;95088.88;5172121;27;1039;-51
2022/09/01 07:17:48;;;;;;;;;;;;;;;32.38;39.47;95082.53;5172030;27;1914;-51
2022/09/01 07:20:15;;;;;;;;;;;;;;;31.55;40.07;95074.59;5171874;27;1023;-51
2022/09/01 07:22:41;;;;;;;;;;;;;;;30.70;43.54;95065.00;5172133;27;1016;-50
2022/09/01 07:25:11;;;;;;;;;;;;;;;29.14;46.34;95068.97;5171701;27;1036;-50
2022/09/01 07:27:38;;;;;;;;;;;;;;;27.44;50.40;95059.81;5172094;27;1052;-50
2022/09/01 07:30:07;;;;;;;;;;;;;;;26.71;51.61;95058.88;5157351;27;1026;-50
2022/09/01 07:32:34;;;;;;;;;;;;;;;26.17;56.23;95059.84;5157988;27;1863;-50
2022/09/01 07:35:00;;;;;;;;;;;;;;;25.95;57.47;95041.56;5157735;27;1087;-50
2022/09/01 07:37:26;;;;;;;;;;;;;;;25.87;57.12;95048.31;5157636;27;1974;-50
2022/09/01 07:39:53;;;;;;;;;;;;;;;25.69;59.14;95051.44;5139622;27;1028;-50
2022/09/01 07:42:20;;;;;;;;;;;;;;;25.79;57.88;95043.31;5157604;27;1091;-49
2022/09/01 07:44:46;;;;;;;;;;;;;;;25.89;57.91;95046.13;5147603;27;1219;-49
2022/09/01 07:47:14;;;;;;;;;;;;;;;25.87;59.27;95040.09;5136849;27;1028;-50
2022/09/01 07:49:40;;;;;;;;;;;;;;;25.85;60.03;95044.19;5137006;27;1061;-50
2022/09/01 07:52:06;;;;;;;;;;;;;;;25.76;58.34;95043.00;5136555;27;977;-49
2022/09/01 07:54:33;;;;;;;;;;;;;;;25.89;58.03;95040.66;5137057;27;1007;-50
2022/09/01 07:57:00;;;;;;;;;;;;;;;25.86;59.51;95040.38;5136735;27;1988;-50
2022/09/01 07:59:27;;;;;;;;;;;;;;;25.61;59.58;95028.09;5136764;27;944;-50
2022/09/01 08:01:54;;;;;;;;;;;;;;;25.76;61.05;95032.88;5136516;27;1020;-50
2022/09/01 08:04:23;;;;;;;;;;;;;;;25.92;61.52;95025.66;5136594;27;1024;-50
2022/09/01 08:06:49;;;;;;;;;;;;;;;25.77;60.42;95023.59;5136318;27;960;-50
2022/09/01 08:09:15;;;;;;;;;;;;;;;25.69;60.78;95033.09;5136712;27;976;-50
2022/09/01 08:11:41;;;;;;;;;;;;;;;25.73;63.13;95025.19;5136312;27;1029;-49
2022/09/01 08:14:08;;;;;;;;;;;;;;;25.56;60.31;95027.22;5136450;27;1017;-50
2022/09/01 08:16:34;;;;;;;;;;;;;;;25.51;61.72;95026.06;5136250;27;1991;-49
2022/09/01 08:19:00;;;;;;;;;;;;;;;25.43;63.85;95021.06;5136266;27;1083;-49
2022/09/01 08:21:26;;;;;;;;;;;;;;;25.42;63.74;95016.69;5135960;27;1021;-50
2022/09/01 08:23:53;;;;;;;;;;;;;;;25.58;62.16;95014.91;5136467;27;957;-50
2022/09/01 08:26:21;;;;;;;;;;;;;;;25.35;61.05;95018.78;5135952;27;1122;-50
2022/09/01 08:28:47;;;;;;;;;;;;;;;25.29;63.41;95014.34;5136280;27;961;-50
2022/09/01 08:31:16;;;;;;;;;;;;;;;25.27;63.30;95013.75;5135972;27;1011;-50
2022/09/01 08:33:42;;;;;;;;;;;;;;;25.19;64.00;95005.97;5136100;27;1050;-50
2022/09/01 08:36:09;;;;;;;;;;;;;;;25.17;62.18;95003.50;5135725;27;1016;-50
2022/09/01 08:38:36;;;;;;;;;;;;;;;25.25;63.63;95005.84;5136108;27;1916;-50
2022/09/01 08:41:02;;;;;;;;;;;;;;;25.37;63.92;95000.19;5134934;27;995;-50
2022/09/01 08:43:47;;;;;;;;;;;;;;;25.40;63.03;94991.50;5135894;27;1088;-50
2022/09/01 08:46:33;;;;;;;;;;;;;;;25.28;60.42;94988.88;5135587;27;1966;-50
2022/09/01 08:49:06;;;;;;;;;;;;;;;25.26;63.90;94992.97;5136041;27;968;-50
2022/09/01 08:51:35;;;;;;;;;;;;;;;25.31;63.86;94996.59;5135575;27;1044;-50
2022/09/01 08:54:21;;;;;;;;;;;;;;;25.54;62.89;94988.34;5135625;27;1071;-50
2022/09/01 08:56:51;;;;;;;;;;;;;;;25.62;60.63;94985.13;5135324;27;1987;-50
2022/09/01 08:59:18;;;;;;;;;;;;;;;25.62;61.44;94994.16;5135753;27;980;-50
2022/09/01 09:01:44;;;;;;;;;;;;;;;25.55;61.46;94987.22;5135341;27;897;-50
2022/09/01 09:04:10;;;;;;;;;;;;;;;25.62;62.84;94985.13;5135357;27;1083;-50
2022/09/01 09:06:52;;;;;;;;;;;;;;;25.83;59.86;94980.66;5135361;27;1033;-50
2022/09/01 09:09:18;;;;;;;;;;;;;;;25.83;62.74;94977.91;5135294;27;1056;-50
2022/09/01 09:12:03;;;;;;;;;;;;;;;25.89;62.30;94976.84;5135435;27;1035;-50
2022/09/01 09:14:48;;;;;;;;;;;;;;;25.92;61.75;94968.16;5135273;27;1103;-50
2022/09/01 09:17:16;;;;;;;;;;;;;;;26.09;62.33;94966.09;5134696;27;1901;-51
2022/09/01 09:19:43;;;;;;;;;;;;;;;26.15;61.34;94960.66;5135233;27;1035;-50
2022/09/01 09:22:11;;;;;;;;;;;;;;;26.21;60.57;94956.84;5134905;27;1087;-50
2022/09/01 09:24:47;;;;;;;;;;;;;;;26.17;60.55;94953.81;5135222;27;976;-50
2022/09/01 09:27:18;;;;;;;;;;;;;;;26.37;60.98;94949.53;5134764;27;1011;-50
2022/09/01 09:29:52;;;;;;;;;;;;;;;26.51;60.78;94952.66;5135096;27;964;-50
2022/09/01 09:32:18;;;;;;;;;;;;;;;26.55;60.67;94948.28;5134681;27;996;-50
2022/09/01 09:34:44;;;;;;;;;;;;;;;26.54;58.51;94946.63;5134873;27;1016;-50
2022/09/01 09:37:21;;;;;;;;;;;;;;;26.44;60.74;94947.38;5134828;27;1985;-50
2022/09/01 09:40:08;;;;;;;;;;;;;;;26.52;60.22;94938.66;5134833;27;1122;-50
2022/09/01 09:42:38;;;;;;;;;;;;;;;26.55;60.41;94943.59;5134683;27;981;-50
2022/09/01 09:45:12;;;;;;;;;;;;;;;26.71;59.36;94928.06;5147401;27;1157;-50
2022/09/01 09:54:13;;;;;;;;;;;;;;;26.56;59.55;94926.09;5052813;27;1303455;-50
2022/09/01 09:56:43;;;;;;;;;;;;;;;26.76;59.90;94917.13;5173287;27;1015;-50
2022/09/01 09:59:17;;;;;;;;;;;;;;;26.88;59.46;94909.50;5172895;27;995;-49
2022/09/01 10:01:43;;;;;;;;;;;;;;;26.96;58.60;94907.31;5172982;27;979;-49
2022/09/01 10:04:09;;;;;;;;;;;;;;;26.63;60.39;94907.47;5172916;27;987;-50
2022/09/01 10:06:36;;;;;;;;;;;;;;;26.87;59.87;94905.09;5172939;27;1091;-50
2022/09/01 10:09:07;;;;;;;;;;;;;;;27.07;58.92;94904.34;5172491;27;1905;-50
2022/09/01 10:11:43;;;;;;;;;;;;;;;27.17;59.09;94909.03;5173098;27;1061;-50
2022/09/01 10:14:14;;;;;;;;;;;;;;;27.25;57.85;94896.72;5172620;27;1003;-49
2022/09/01 10:16:41;;;;;;;;;;;;;;;27.33;57.13;94900.84;5173111;27;1114;-50
2022/09/01 10:19:11;;;;;;;;;;;;;;;27.41;57.43;94898.41;5172708;27;1015;-50
2022/09/01 10:21:39;;;;;;;;;;;;;;;27.31;57.93;94903.03;5172710;27;1044;-50
2022/09/01 10:24:13;;;;;;;;;;;;;;;27.22;57.86;94898.06;5172526;27;1059;-50
2022/09/01 10:26:42;;;;;;;;;;;;;;;27.37;58.05;94902.75;5172662;27;1060;-50
2022/09/01 10:29:07;;;;;;;;;;;;;;;27.43;57.58;94900.84;5153977;27;1918;-50
2022/09/01 10:31:34;;;;;;;;;;;;;;;27.49;58.36;94899.78;5172760;27;1037;-50
2022/09/01 10:34:02;;;;;;;;;;;;;;;27.58;56.03;94895.34;5172564;27;964;-50
2022/09/01 10:36:29;;;;;;;;;;;;;;;27.44;56.96;94892.34;5172566;27;1071;-50
2022/09/01 10:38:55;;;;;;;;;;;;;;;27.18;57.06;94896.13;5172299;27;956;-50
2022/09/01 10:41:39;;;;;;;;;;;;;;;26.96;56.08;94888.94;5172264;27;968;-49
2022/09/01 10:44:10;;;;;;;;;;;;;;;27.04;55.64;94890.34;5172173;27;1154;-50
2022/09/01 10:46:36;;;;;;;;;;;;;;;27.23;56.93;94885.16;5172439;27;1031;-50
2022/09/01 10:49:11;;;;;;;;;;;;;;;27.43;56.34;94879.72;5171852;27;1913;-50
2022/09/01 10:51:43;;;;;;;;;;;;;;;27.39;56.93;94877.78;5172233;27;1028;-49
2022/09/01 10:54:29;;;;;;;;;;;;;;;27.49;55.34;94876.97;5171600;27;1217;-49
2022/09/01 10:56:56;;;;;;;;;;;;;;;27.72;53.42;94870.94;5171983;27;1503;-49
2022/09/01 10:59:22;;;;;;;;;;;;;;;27.80;54.75;94859.38;5171875;27;1031;-49
2022/09/01 11:01:48;;;;;;;;;;;;;;;27.85;54.28;94859.38;5160097;27;1035;-50
2022/09/01 11:04:22;;;;;;;;;;;;;;;28.00;51.97;94860.47;5157795;27;1023;-49
2022/09/01 11:06:52;;;;;;;;;;;;;;;28.13;53.34;94848.88;5158327;27;1027;-49
2022/09/01 11:09:21;;;;;;;;;;;;;;;28.24;53.29;94844.19;5157767;27;1917;-50
2022/09/01 11:12:10;;;;;;;;;;;;;;;28.17;52.51;94852.75;5157984;27;1035;-51
2022/09/01 11:14:53;;;;;;;;;;;;;;;28.14;51.62;94845.06;5157786;27;944;-48
2022/09/01 11:17:19;;;;;;;;;;;;;;;28.03;52.41;94844.25;5157909;27;1051;-48
2022/09/01 11:27:48;;;;;;;;;;;;;;;27.70;55.72;94847.56;4623811;27;2529785;-48
2022/09/01 11:30:22;;;;;;;;;;;;;;;27.75;55.35;94836.59;5152211;27;988;-48
2022/09/01 11:32:56;;;;;;;;;;;;;;;27.83;55.25;94836.84;5152241;27;1084;-49
2022/09/01 11:35:24;;;;;;;;;;;;;;;27.89;55.09;94826.72;5151985;27;1015;-48
2022/09/01 11:37:53;;;;;;;;;;;;;;;27.82;55.57;94831.63;5152113;27;965;-49
2022/09/01 11:40:22;;;;;;;;;;;;;;;27.59;55.20;94830.28;5152010;27;1102;-48
2022/09/01 11:42:50;;;;;;;;;;;;;;;27.47;56.69;94830.59;5151944;27;1984;-49
2022/09/01 11:45:18;;;;;;;;;;;;;;;27.41;56.72;94824.28;5151825;27;1178;-49
2022/09/01 11:47:45;;;;;;;;;;;;;;;27.33;56.33;94824.81;5152130;27;987;-49
2022/09/01 11:50:20;;;;;;;;;;;;;;;27.24;57.20;94820.94;5151640;27;1095;-49
2022/09/01 11:52:52;;;;;;;;;;;;;;;27.21;57.83;94822.31;5152036;27;961;-49
2022/09/01 11:55:27;;;;;;;;;;;;;;;27.13;57.98;94825.59;5151777;27;1008;-49
2022/09/01 11:57:53;;;;;;;;;;;;;;;27.01;59.98;94822.28;5151821;27;1027;-49
2022/09/01 12:00:37;;;;;;;;;;;;;;;26.95;60.21;94826.94;5151443;27;1111;-50
2022/09/01 12:03:23;;;;;;;;;;;;;;;26.91;60.66;94827.78;5151483;27;1909;-50
2022/09/01 12:05:58;;;;;;;;;;;;;;;26.86;61.94;94821.19;5151327;27;1266;-49
2022/09/01 12:08:25;;;;;;;;;;;;;;;26.73;61.33;94827.19;5151578;27;1071;-49
2022/09/01 12:11:02;;;;;;;;;;;;;;;26.66;61.06;94826.63;5151847;27;989;-50
2022/09/01 12:13:28;;;;;;;;;;;;;;;26.63;60.12;94827.16;5151418;27;1064;-50
2022/09/01 12:16:02;;;;;;;;;;;;;;;26.68;59.90;94832.66;5151193;27;1099;-50
2022/09/01 12:18:38;;;;;;;;;;;;;;;26.76;58.84;94826.63;5151358;27;1028;-50
2022/09/01 12:21:06;;;;;;;;;;;;;;;26.86;58.58;94820.34;5151057;27;1036;-50
2022/09/01 12:23:34;;;;;;;;;;;;;;;26.84;55.45;94823.38;5151265;27;1922;-50
2022/09/01 12:26:02;;;;;;;;;;;;;;;26.80;52.61;94815.94;5149900;27;1083;-50
2022/09/01 12:28:32;;;;;;;;;;;;;;;26.80;52.56;94815.94;5112616;28;970;-50
2022/09/01 12:31:00;;;;;;;;;;;;;;;26.88;54.40;94816.25;5130392;28;1041;-49
2022/09/01 12:33:27;;;;;;;;;;;;;;;26.97;55.63;94815.69;5130533;28;1012;-49
2022/09/01 12:36:12;;;;;;;;;;;;;;;27.14;53.75;94801.72;5116245;28;1040;-50
2022/09/01 12:38:38;;;;;;;;;;;;;;;27.26;53.38;94805.03;5116666;28;961;-50
2022/09/01 12:41:21;;;;;;;;;;;;;;;27.34;52.69;94815.50;5116655;28;1015;-50
2022/09/01 12:43:48;;;;;;;;;;;;;;;27.36;52.89;94815.22;5114858;28;1909;-50
2022/09/01 12:46:34;;;;;;;;;;;;;;;27.34;52.98;94809.16;5077938;28;1317;-50
2022/09/01 12:49:17;;;;;;;;;;;;;;;27.37;52.16;94806.69;5095967;28;1784;-50
2022/09/01 12:51:47;;;;;;;;;;;;;;;27.40;50.32;94811.63;5096089;28;1060;-50
2022/09/01 12:54:14;;;;;;;;;;;;;;;27.42;50.35;94816.84;5095933;28;1080;-50
2022/09/01 12:56:46;;;;;;;;;;;;;;;27.39;49.96;94809.97;5095762;28;1041;-50
2022/09/01 12:59:14;;;;;;;;;;;;;;;27.33;49.43;94813.81;5095892;28;1099;-50
2022/09/01 13:01:41;;;;;;;;;;;;;;;27.16;54.02;94822.28;5095948;28;988;-50
2022/09/01 13:04:21;;;;;;;;;;;;;;;26.74;60.50;94828.81;5095873;28;1914;-50
2022/09/01 13:06:47;;;;;;;;;;;;;;;26.44;61.47;94827.59;5095781;28;961;-50
2022/09/01 13:09:14;;;;;;;;;;;;;;;26.37;63.10;94823.47;5095586;28;1087;-50
2022/09/01 13:11:46;;;;;;;;;;;;;;;26.38;63.56;94825.13;5095531;28;1045;-50
2022/09/01 13:14:13;;;;;;;;;;;;;;;26.44;62.16;94815.81;5095493;28;965;-49
2022/09/01 13:16:39;;;;;;;;;;;;;;;26.45;62.58;94822.97;5095338;28;1080;-50
2022/09/01 13:19:05;;;;;;;;;;;;;;;26.42;61.81;94827.06;5095619;28;1057;-50
2022/09/01 13:21:33;;;;;;;;;;;;;;;26.46;62.41;94833.66;5095253;28;1040;-49
2022/09/01 13:23:59;;;;;;;;;;;;;;;26.52;62.73;94839.16;5095427;28;2038;-50
2022/09/01 13:26:26;;;;;;;;;;;;;;;26.55;60.92;94833.13;5094939;28;1088;-50
2022/09/01 13:28:53;;;;;;;;;;;;;;;26.57;59.52;94830.94;5095264;28;1023;-50
2022/09/01 13:31:18;;;;;;;;;;;;;;;26.67;59.11;94828.25;5095014;28;1021;-50
2022/09/01 13:33:44;;;;;;;;;;;;;;;26.63;58.58;94825.22;5095385;28;996;-49
2022/09/01 13:36:10;;;;;;;;;;;;;;;26.44;57.97;94826.78;5095106;28;1123;-50
2022/09/01 13:38:38;;;;;;;;;;;;;;;26.32;57.27;94829.75;5095173;28;1029;-50
2022/09/01 13:41:04;;;;;;;;;;;;;;;26.20;55.78;94829.16;5094774;28;1881;-50